CLT TRACON Summary / KCLT TAF
CLT TRACON Summary:
Tropical Depression #9 in the Gulf and high pressure over WV will continue to draw Atlantic moisture into SC. Expect FEW050-060 clouds in the TRACON early this morning with SCT/BKN030-050 clouds developing with late morning heating. Isolated showers and thunderstorms are possible over SC this morning and more likely this afternoon. Cells will move west to southwest at 5-15kts. Surface winds will be mostly northeast to east 3-7kts and occasionally calm, becoming east to southeast by 15-16z. Flight hazards in the TRACON airspace: None expected.

Updated:8/31/2016 6:18 AM
CLT Terminal Aerodrome Forecast:

FTUS80 KCLT 311139
KCLT 311138Z 3112/0112 05003KT P6SM FEW050 SCT120
     FM311400 07004KT P6SM SCT035
     FM311700 11006KT P6SM SCT050 SCT250
     FM010400 17003KT P6SM SCT130 SCT250
CLT TRACON Area Remark:
NONE.
Convective Gate Forecast / Collaborative Convective Forecast Product / Vertical Wind Profile
Convective Gate Forecast
SIGMETS/ Southeast Radar & Satellite Loops (click on image to enlarge)

Southeast Radar Loop

 



USA.gov is the U.S. government's official web portal to all federal, state and local government web resources and services.